createdAt,value
2019-01-28T00:00:32.576Z,4.60
2019-01-28T00:04:37.940Z,4.60
2019-01-28T00:08:42.745Z,4.60
2019-01-28T00:12:47.563Z,4.60
2019-01-28T00:16:52.381Z,4.60
2019-01-28T00:20:57.256Z,4.60
2019-01-28T00:25:02.053Z,4.60
2019-01-28T00:29:06.863Z,4.60
2019-01-28T00:33:11.671Z,4.60
2019-01-28T00:37:16.501Z,4.60
2019-01-28T00:41:21.373Z,4.60
2019-01-28T00:45:26.148Z,4.60
2019-01-28T00:49:30.967Z,4.60
2019-01-28T00:53:35.786Z,4.50
2019-01-28T00:57:40.591Z,4.50
2019-01-28T01:01:45.420Z,4.40
2019-01-28T01:05:50.338Z,4.30
2019-01-28T01:09:55.139Z,4.20
2019-01-28T01:13:59.948Z,4.10
2019-01-28T01:18:04.767Z,4.00
2019-01-28T01:22:09.572Z,4.00
2019-01-28T01:26:14.417Z,3.80
2019-01-28T01:30:19.200Z,3.70
2019-01-28T01:34:24.022Z,3.50
2019-01-28T01:38:28.832Z,3.20
2019-01-28T01:42:33.651Z,2.90
2019-01-28T01:46:38.542Z,2.70
2019-01-28T01:50:43.331Z,2.60
2019-01-28T01:54:48.151Z,2.50
2019-01-28T01:58:53.011Z,2.40
2019-01-28T02:02:58.972Z,2.40
2019-01-28T02:07:03.790Z,2.30
2019-01-28T02:11:08.578Z,2.30
2019-01-28T02:15:18.260Z,2.40
2019-01-28T02:19:23.086Z,2.40
2019-01-28T02:23:27.889Z,2.40
2019-01-28T02:27:32.698Z,2.40
2019-01-28T02:31:37.516Z,2.40
2019-01-28T02:35:42.306Z,2.40
2019-01-28T02:39:47.217Z,2.40
2019-01-28T02:43:52.027Z,2.40
2019-01-28T02:47:56.835Z,2.40
2019-01-28T02:52:01.681Z,2.40
2019-01-28T02:56:06.468Z,2.50
2019-01-28T03:00:14.527Z,2.50
2019-01-28T03:04:20.312Z,2.50
2019-01-28T03:08:25.118Z,2.40
2019-01-28T03:12:29.920Z,2.40
2019-01-28T03:16:34.713Z,2.50
2019-01-28T03:20:39.525Z,2.50
2019-01-28T03:24:44.387Z,2.50
2019-01-28T03:28:49.206Z,2.50
2019-01-28T03:32:54.027Z,2.40
2019-01-28T03:36:58.829Z,2.40
2019-01-28T03:41:03.647Z,2.40
2019-01-28T03:45:11.559Z,2.40
2019-01-28T03:49:16.373Z,2.50
2019-01-28T03:53:21.356Z,2.40
2019-01-28T03:57:26.178Z,2.40
2019-01-28T04:01:30.991Z,2.40
2019-01-28T04:05:35.808Z,2.40
2019-01-28T04:09:40.631Z,2.30
2019-01-28T04:13:46.427Z,2.30
2019-01-28T04:17:51.261Z,2.30
2019-01-28T04:21:56.071Z,2.30
2019-01-28T04:26:00.902Z,2.30
2019-01-28T04:30:12.799Z,2.40
2019-01-28T04:34:17.613Z,2.40
2019-01-28T04:38:22.436Z,2.40
2019-01-28T04:42:27.254Z,2.20
2019-01-28T04:46:32.093Z,2.00
2019-01-28T04:50:36.907Z,1.80
2019-01-28T04:54:41.717Z,1.70
2019-01-28T04:58:46.531Z,1.50
2019-01-28T05:02:51.345Z,1.40
2019-01-28T05:06:56.163Z,1.30
2019-01-28T05:11:01.012Z,1.30
2019-01-28T05:15:08.172Z,1.30
2019-01-28T05:19:13.005Z,1.20
2019-01-28T05:23:17.900Z,1.00
2019-01-28T05:27:22.869Z,0.80
2019-01-28T05:31:27.659Z,0.50
2019-01-28T05:35:32.493Z,0.60
2019-01-28T05:39:37.305Z,0.60
2019-01-28T05:43:42.122Z,0.60
2019-01-28T05:47:47.006Z,0.60
2019-01-28T05:51:51.819Z,0.50
2019-01-28T05:55:56.652Z,0.40
2019-01-28T06:00:01.520Z,0.40
2019-01-28T06:04:06.425Z,0.40
2019-01-28T06:08:11.225Z,0.40
2019-01-28T06:12:16.039Z,0.30
2019-01-28T06:16:20.863Z,0.30
2019-01-28T06:20:26.735Z,0.30
2019-01-28T06:24:31.556Z,0.30
2019-01-28T06:28:36.735Z,0.40
2019-01-28T06:32:41.576Z,0.50
2019-01-28T06:36:46.415Z,0.50
2019-01-28T06:40:51.240Z,0.50
2019-01-28T06:44:56.065Z,0.50
2019-01-28T06:49:00.875Z,0.50
2019-01-28T06:53:05.773Z,0.50
2019-01-28T06:57:10.619Z,0.50
2019-01-28T07:01:15.444Z,0.50
2019-01-28T07:05:20.260Z,0.50
2019-01-28T07:09:25.088Z,0.60
2019-01-28T07:13:29.890Z,0.80
2019-01-28T07:17:34.708Z,0.90
2019-01-28T07:21:39.525Z,1.00
2019-01-28T07:25:44.342Z,1.10
2019-01-28T07:29:49.160Z,1.30
2019-01-28T07:33:54.139Z,1.30
2019-01-28T07:37:59.018Z,1.40
2019-01-28T07:42:03.838Z,1.50
2019-01-28T07:46:09.724Z,1.60
2019-01-28T07:50:14.547Z,1.80
2019-01-28T07:54:19.439Z,2.40
2019-01-28T07:58:24.246Z,3.40
2019-01-28T08:02:29.088Z,4.00
2019-01-28T08:06:33.913Z,4.10
2019-01-28T08:10:38.759Z,4.50
2019-01-28T08:14:43.580Z,4.20
2019-01-28T08:18:48.363Z,4.20
2019-01-28T08:22:53.193Z,4.40
2019-01-28T08:26:58.040Z,5.20
2019-01-28T08:31:02.862Z,5.60
2019-01-28T08:35:09.815Z,5.20
2019-01-28T08:39:14.667Z,4.60
2019-01-28T08:43:19.472Z,4.10
2019-01-28T08:47:25.273Z,4.30
2019-01-28T08:51:30.103Z,4.40
2019-01-28T08:55:34.975Z,4.10
2019-01-28T08:59:39.785Z,3.90
2019-01-28T09:03:44.657Z,4.30
2019-01-28T09:07:49.491Z,4.50
2019-01-28T09:11:54.311Z,4.40
2019-01-28T09:15:59.139Z,4.80
2019-01-28T09:20:07.059Z,5.00
2019-01-28T09:24:11.854Z,5.00
2019-01-28T09:28:16.663Z,4.90
2019-01-28T09:32:21.504Z,4.70
2019-01-28T09:36:26.313Z,4.70
2019-01-28T09:40:33.825Z,4.60
2019-01-28T09:44:38.615Z,4.40
2019-01-28T09:48:43.430Z,4.20
2019-01-28T09:52:48.880Z,4.20
2019-01-28T09:56:53.708Z,4.30
2019-01-28T10:00:58.527Z,4.90
2019-01-28T10:05:04.524Z,6.10
2019-01-28T10:09:10.270Z,6.20
2019-01-28T10:13:15.498Z,5.50
2019-01-28T10:17:20.588Z,5.50
2019-01-28T10:21:25.734Z,6.30
2019-01-28T10:25:30.816Z,8.50
2019-01-28T10:29:36.844Z,9.70
2019-01-28T10:33:41.926Z,9.70
2019-01-28T10:37:47.012Z,10.80
2019-01-28T10:41:52.130Z,10.20
2019-01-28T10:45:57.216Z,10.10
2019-01-28T10:50:02.296Z,11.20
2019-01-28T10:54:07.543Z,10.60
2019-01-28T10:58:12.676Z,11.40
2019-01-28T11:02:17.773Z,10.80
2019-01-28T11:06:23.440Z,9.80
2019-01-28T11:10:29.106Z,9.60
2019-01-28T11:14:34.264Z,8.80
2019-01-28T11:18:39.462Z,8.20
2019-01-28T11:22:45.116Z,7.30
2019-01-28T11:26:52.159Z,6.60
2019-01-28T11:30:58.097Z,6.10
2019-01-28T11:35:02.853Z,5.70
2019-01-28T11:39:09.096Z,5.50
2019-01-28T11:43:14.056Z,5.30
2019-01-28T11:47:19.294Z,6.50
2019-01-28T11:51:24.415Z,7.50
2019-01-28T11:55:29.481Z,7.70
2019-01-28T11:59:34.568Z,7.50
2019-01-28T12:03:39.737Z,8.30
2019-01-28T12:07:44.819Z,8.10
2019-01-28T12:11:49.899Z,6.90
2019-01-28T12:15:55.938Z,6.70
2019-01-28T12:20:01.024Z,6.90
2019-01-28T12:24:06.111Z,6.30
2019-01-28T12:28:10.929Z,5.60
2019-01-28T12:32:15.776Z,5.10
2019-01-28T12:36:20.800Z,5.00
2019-01-28T12:40:25.756Z,5.10
2019-01-28T12:44:30.567Z,5.10
2019-01-28T12:48:35.513Z,5.10
2019-01-28T12:52:40.507Z,5.30
2019-01-28T12:56:45.499Z,5.40
2019-01-28T13:00:52.072Z,5.50
2019-01-28T13:04:56.964Z,5.40
2019-01-28T13:09:01.790Z,5.30
2019-01-28T13:13:08.806Z,5.30
2019-01-28T13:17:13.581Z,5.40
2019-01-28T13:21:18.987Z,5.40
2019-01-28T13:25:26.775Z,5.30
2019-01-28T13:29:31.591Z,5.20
2019-01-28T13:33:36.416Z,5.00
2019-01-28T13:37:41.297Z,5.00
2019-01-28T13:41:46.155Z,4.90
2019-01-28T13:45:50.967Z,5.30
2019-01-28T13:49:56.303Z,5.40
2019-01-28T13:54:01.177Z,5.40
2019-01-28T13:58:05.991Z,5.00
2019-01-28T14:02:10.827Z,5.00
2019-01-28T14:06:15.620Z,4.90
2019-01-28T14:10:21.763Z,5.00
2019-01-28T14:14:26.580Z,5.20
2019-01-28T14:18:31.398Z,5.00
2019-01-28T14:22:36.232Z,4.80
2019-01-28T14:26:41.099Z,4.70
2019-01-28T14:30:46.223Z,4.60
2019-01-28T14:34:51.063Z,4.50
2019-01-28T14:38:55.880Z,4.50
2019-01-28T14:43:00.702Z,4.50
2019-01-28T14:47:05.488Z,4.50
2019-01-28T14:51:10.308Z,4.50
2019-01-28T14:55:15.124Z,4.50
2019-01-28T14:59:20.011Z,4.30
2019-01-28T15:03:24.823Z,4.10
2019-01-28T15:07:29.683Z,4.00
2019-01-28T15:11:34.467Z,3.90
2019-01-28T15:15:40.287Z,3.80
2019-01-28T15:19:50.663Z,3.70
2019-01-28T15:23:51.603Z,3.70
2019-01-28T15:27:56.424Z,3.60
2019-01-28T15:32:01.212Z,3.60
2019-01-28T15:36:06.199Z,3.50
2019-01-28T15:40:15.519Z,3.40
2019-01-28T15:44:20.341Z,3.40
2019-01-28T15:48:25.155Z,3.30
2019-01-28T15:52:30.008Z,3.30
2019-01-28T15:56:34.835Z,3.30
2019-01-28T16:00:42.271Z,3.20
2019-01-28T16:04:47.215Z,3.20
2019-01-28T16:08:52.099Z,3.10
2019-01-28T16:12:58.151Z,3.10
2019-01-28T16:17:03.011Z,3.10
2019-01-28T16:21:08.271Z,3.10
2019-01-28T16:25:13.750Z,3.10
2019-01-28T16:29:18.728Z,3.10
2019-01-28T16:33:23.611Z,3.00
2019-01-28T16:37:28.501Z,3.00
2019-01-28T16:41:33.315Z,3.00
2019-01-28T16:45:38.205Z,3.00
2019-01-28T16:49:44.331Z,2.90
2019-01-28T16:53:49.122Z,2.90
2019-01-28T16:57:54.311Z,2.90
2019-01-28T17:01:59.295Z,2.90
2019-01-28T17:06:04.516Z,2.90
2019-01-28T17:10:13.368Z,2.90
2019-01-28T17:14:18.406Z,2.90
2019-01-28T17:18:23.386Z,2.90
2019-01-28T17:22:28.367Z,2.80
2019-01-28T17:26:33.346Z,2.80
2019-01-28T17:30:40.167Z,2.60
2019-01-28T17:34:45.270Z,2.50
2019-01-28T17:38:50.188Z,2.40
2019-01-28T17:42:54.971Z,2.30
2019-01-28T17:47:00.048Z,2.20
2019-01-28T17:51:05.148Z,2.20
2019-01-28T17:55:11.761Z,2.20
2019-01-28T17:59:16.717Z,2.20
2019-01-28T18:03:21.701Z,2.20
2019-01-28T18:07:26.963Z,2.10
2019-01-28T18:11:32.244Z,2.10
2019-01-28T18:15:37.247Z,2.00
2019-01-28T18:19:42.375Z,1.90
2019-01-28T18:23:48.374Z,1.90
2019-01-28T18:27:53.583Z,1.80
2019-01-28T18:31:59.143Z,1.80
2019-01-28T18:36:05.689Z,1.80
2019-01-28T18:40:16.028Z,1.80
2019-01-28T18:44:21.415Z,1.80
2019-01-28T18:48:26.855Z,1.80
2019-01-28T18:52:32.900Z,1.70
2019-01-28T18:56:39.923Z,1.70
2019-01-28T19:00:46.539Z,1.70
2019-01-28T19:04:52.553Z,1.70
2019-01-28T19:08:59.964Z,1.70
2019-01-28T19:13:08.289Z,1.70
2019-01-28T19:17:27.699Z,1.70
2019-01-28T19:21:34.875Z,1.80
2019-01-28T19:25:40.534Z,1.90
2019-01-28T19:29:45.978Z,1.90
2019-01-28T19:33:51.359Z,1.90
2019-01-28T19:37:56.779Z,1.90
2019-01-28T19:42:02.834Z,1.80
2019-01-28T19:46:08.588Z,1.80
2019-01-28T19:50:16.928Z,1.70
2019-01-28T19:54:23.449Z,1.70
2019-01-28T19:58:29.213Z,1.60
2019-01-28T20:02:35.467Z,1.60
2019-01-28T20:06:41.768Z,1.60
2019-01-28T20:10:48.378Z,1.60
2019-01-28T20:14:54.120Z,1.50
2019-01-28T20:18:59.927Z,1.50
2019-01-28T20:23:05.559Z,1.50
2019-01-28T20:27:11.172Z,1.50
2019-01-28T20:31:16.820Z,1.50
2019-01-28T20:35:22.551Z,1.50
2019-01-28T20:39:28.227Z,1.50
2019-01-28T20:43:33.809Z,1.50
2019-01-28T20:47:39.596Z,1.40
2019-01-28T20:51:45.146Z,1.40
2019-01-28T20:55:51.455Z,1.40
2019-01-28T20:59:58.795Z,1.40
2019-01-28T21:04:04.878Z,1.30
2019-01-28T21:08:10.300Z,1.30
2019-01-28T21:12:16.465Z,1.30
2019-01-28T21:16:22.401Z,1.20
2019-01-28T21:20:27.746Z,1.20
2019-01-28T21:24:33.140Z,1.20
2019-01-28T21:28:38.420Z,1.20
2019-01-28T21:32:44.496Z,1.20
2019-01-28T21:36:51.642Z,1.20
2019-01-28T21:40:56.884Z,1.20
2019-01-28T21:45:02.173Z,1.10
2019-01-28T21:49:08.506Z,1.10
2019-01-28T21:53:13.685Z,1.10
2019-01-28T21:57:18.794Z,1.20
2019-01-28T22:01:23.952Z,1.20
2019-01-28T22:05:28.827Z,1.20
2019-01-28T22:09:33.796Z,1.20
2019-01-28T22:13:38.615Z,1.20
2019-01-28T22:17:43.518Z,1.20
2019-01-28T22:21:48.355Z,1.30
2019-01-28T22:25:53.248Z,1.30
2019-01-28T22:29:58.156Z,1.30
2019-01-28T22:34:02.980Z,1.30
2019-01-28T22:38:07.807Z,1.30
2019-01-28T22:42:21.055Z,1.30
2019-01-28T22:46:19.114Z,1.30
2019-01-28T22:50:24.162Z,1.30
2019-01-28T22:54:28.940Z,1.30
2019-01-28T22:58:33.768Z,1.30
2019-01-28T23:02:38.608Z,1.30
2019-01-28T23:06:43.447Z,1.30
2019-01-28T23:10:48.244Z,1.20
2019-01-28T23:14:53.068Z,1.20
2019-01-28T23:18:57.883Z,1.10
2019-01-28T23:23:02.810Z,1.00
2019-01-28T23:27:07.655Z,1.00
2019-01-28T23:31:12.446Z,1.00
2019-01-28T23:35:17.263Z,1.00
2019-01-28T23:39:22.174Z,1.00
2019-01-28T23:43:26.988Z,1.00
2019-01-28T23:47:31.807Z,0.90
2019-01-28T23:51:36.631Z,0.90
2019-01-28T23:55:41.507Z,0.90
2019-01-28T23:59:46.387Z,0.80
